createdAt,value
2022-09-09T00:01:10.367Z,20.00
2022-09-09T00:04:09.115Z,20.00
2022-09-09T00:06:58.608Z,20.10
2022-09-09T00:09:29.914Z,20.00
2022-09-09T00:12:07.841Z,20.00
2022-09-09T00:14:49.396Z,20.00
2022-09-09T00:17:26.568Z,19.90
2022-09-09T00:20:19.450Z,19.90
2022-09-09T00:22:57.200Z,19.90
2022-09-09T00:25:35.585Z,19.90
2022-09-09T00:28:02.818Z,19.90
2022-09-09T00:30:35.278Z,19.80
2022-09-09T00:33:14.080Z,19.70
2022-09-09T00:35:48.805Z,19.80
2022-09-09T00:38:36.647Z,19.80
2022-09-09T00:41:11.805Z,19.80
2022-09-09T00:43:41.548Z,19.80
2022-09-09T00:46:19.387Z,19.70
2022-09-09T00:48:55.638Z,19.70
2022-09-09T00:51:37.818Z,19.60
2022-09-09T00:54:43.847Z,19.60
2022-09-09T00:57:24.873Z,19.60
2022-09-09T00:59:59.632Z,19.60
2022-09-09T01:02:59.372Z,19.60
2022-09-09T01:05:39.236Z,19.60
2022-09-09T01:08:15.989Z,19.50
2022-09-09T01:10:51.143Z,19.50
2022-09-09T01:13:32.114Z,19.50
2022-09-09T01:16:09.263Z,19.50
2022-09-09T01:18:47.320Z,19.50
2022-09-09T01:21:40.977Z,19.40
2022-09-09T01:24:21.182Z,19.40
2022-09-09T01:27:13.319Z,19.40
2022-09-09T01:29:40.958Z,19.40
2022-09-09T01:32:41.970Z,19.40
2022-09-09T01:35:32.668Z,19.40
2022-09-09T01:38:01.597Z,19.40
2022-09-09T01:40:28.655Z,19.30
2022-09-09T01:42:58.999Z,19.30
2022-09-09T01:45:26.341Z,19.30
2022-09-09T01:47:57.672Z,19.30
2022-09-09T01:50:46.135Z,19.30
2022-09-09T01:53:15.608Z,19.30
2022-09-09T01:55:50.281Z,19.30
2022-09-09T01:58:25.456Z,19.30
2022-09-09T02:01:07.713Z,19.30
2022-09-09T02:03:37.395Z,19.30
2022-09-09T02:06:37.777Z,19.20
2022-09-09T02:09:19.815Z,19.20
2022-09-09T02:11:50.391Z,19.20
2022-09-09T02:14:43.531Z,19.20
2022-09-09T02:17:15.234Z,19.20
2022-09-09T02:20:09.562Z,19.10
2022-09-09T02:22:52.279Z,19.10
2022-09-09T02:25:25.004Z,19.10
2022-09-09T02:27:54.838Z,19.10
2022-09-09T02:30:22.530Z,18.80
2022-09-09T02:32:59.019Z,19.10
2022-09-09T02:35:40.063Z,19.10
2022-09-09T02:38:13.416Z,19.10
2022-09-09T02:40:44.633Z,19.00
2022-09-09T02:43:11.784Z,19.00
2022-09-09T02:46:14.224Z,19.00
2022-09-09T02:48:50.912Z,19.10
2022-09-09T02:51:35.881Z,19.00
2022-09-09T02:54:32.429Z,19.00
2022-09-09T02:57:14.068Z,19.00
2022-09-09T02:59:44.343Z,19.00
2022-09-09T03:02:12.575Z,19.00
2022-09-09T03:04:42.851Z,19.00
2022-09-09T03:07:11.148Z,19.00
2022-09-09T03:09:38.384Z,19.00
2022-09-09T03:12:05.867Z,18.90
2022-09-09T03:14:34.977Z,19.00
2022-09-09T03:17:03.574Z,19.00
2022-09-09T03:19:37.338Z,18.90
2022-09-09T03:22:07.855Z,18.90
2022-09-09T03:24:37.445Z,18.90
2022-09-09T03:27:05.912Z,18.90
2022-09-09T03:29:33.940Z,18.80
2022-09-09T03:32:03.701Z,18.80
2022-09-09T03:34:30.902Z,18.80
2022-09-09T03:36:59.357Z,18.80
2022-09-09T03:39:28.339Z,18.80
2022-09-09T03:41:55.575Z,18.80
2022-09-09T03:44:22.879Z,18.80
2022-09-09T03:46:50.024Z,18.70
2022-09-09T03:49:17.953Z,18.70
2022-09-09T03:51:45.332Z,18.70
2022-09-09T03:54:14.675Z,18.70
2022-09-09T03:56:42.936Z,18.70
2022-09-09T03:59:13.290Z,18.60
2022-09-09T04:01:41.337Z,18.70
2022-09-09T04:04:10.011Z,18.70
2022-09-09T04:06:37.473Z,18.70
2022-09-09T04:09:04.699Z,18.70
2022-09-09T04:11:32.930Z,18.60
2022-09-09T04:14:00.887Z,18.60
2022-09-09T04:16:29.899Z,18.60
2022-09-09T04:18:57.351Z,18.60
2022-09-09T04:21:25.022Z,18.60
2022-09-09T04:23:52.652Z,18.60
2022-09-09T04:26:21.325Z,18.60
2022-09-09T04:28:48.510Z,18.60
2022-09-09T04:31:24.818Z,18.50
2022-09-09T04:33:55.122Z,18.50
2022-09-09T04:36:23.038Z,18.50
2022-09-09T04:38:54.199Z,18.50
2022-09-09T04:41:22.163Z,18.50
2022-09-09T04:43:54.650Z,18.50
2022-09-09T04:46:26.667Z,18.50
2022-09-09T04:48:54.922Z,18.40
2022-09-09T04:51:26.094Z,18.60
2022-09-09T04:53:55.216Z,18.60
2022-09-09T04:56:22.647Z,18.50
2022-09-09T04:58:53.569Z,18.50
2022-09-09T05:01:25.717Z,18.60
2022-09-09T05:03:55.155Z,18.50
2022-09-09T05:06:24.220Z,18.60
2022-09-09T05:08:55.885Z,18.60
2022-09-09T05:11:29.595Z,18.60
2022-09-09T05:14:02.382Z,18.60
2022-09-09T05:16:32.082Z,18.60
2022-09-09T05:19:00.362Z,18.60
2022-09-09T05:21:36.210Z,18.60
2022-09-09T05:24:03.599Z,18.60
2022-09-09T05:26:32.671Z,18.70
2022-09-09T05:29:01.639Z,18.70
2022-09-09T05:31:31.985Z,18.70
2022-09-09T05:34:02.771Z,18.80
2022-09-09T05:36:30.122Z,18.80
2022-09-09T05:38:57.875Z,18.80
2022-09-09T05:41:27.634Z,18.90
2022-09-09T05:43:57.380Z,19.00
2022-09-09T05:46:26.552Z,19.00
2022-09-09T05:48:55.451Z,19.00
2022-09-09T05:51:31.380Z,19.00
2022-09-09T05:54:02.382Z,19.10
2022-09-09T05:56:33.981Z,19.10
2022-09-09T05:59:02.434Z,19.10
2022-09-09T06:01:33.392Z,19.20
2022-09-09T06:04:02.462Z,19.30
2022-09-09T06:06:38.155Z,19.50
2022-09-09T06:09:11.746Z,19.40
2022-09-09T06:11:42.910Z,19.60
2022-09-09T06:14:11.470Z,19.60
2022-09-09T06:16:43.113Z,19.80
2022-09-09T06:19:18.578Z,19.80
2022-09-09T06:21:47.257Z,19.90
2022-09-09T06:24:23.778Z,19.80
2022-09-09T06:27:14.818Z,19.70
2022-09-09T06:29:43.883Z,19.70
2022-09-09T06:32:38.389Z,19.60
2022-09-09T06:35:07.171Z,19.70
2022-09-09T06:37:35.379Z,19.70
2022-09-09T06:40:03.187Z,19.70
2022-09-09T06:42:36.198Z,19.70
2022-09-09T07:15:30.109Z,20.60
2022-09-09T07:18:05.871Z,20.70
2022-09-09T07:20:59.356Z,20.80
2022-09-09T07:23:28.604Z,20.80
2022-09-09T07:25:56.125Z,20.50
2022-09-09T07:28:24.274Z,20.40
2022-09-09T07:30:56.348Z,20.30
2022-09-09T07:33:25.952Z,20.50
2022-09-09T07:35:54.199Z,20.70
2022-09-09T07:38:24.181Z,21.00
2022-09-09T07:40:51.966Z,21.10
2022-09-09T07:43:20.009Z,21.20
2022-09-09T07:45:48.407Z,21.30
2022-09-09T07:48:15.806Z,21.40
2022-09-09T07:50:43.182Z,21.50
2022-09-09T07:53:10.973Z,21.60
2022-09-09T07:55:38.490Z,21.60
2022-09-09T07:58:05.960Z,21.40
2022-09-09T08:00:34.518Z,21.60
2022-09-09T08:03:03.308Z,21.60
2022-09-09T08:05:31.093Z,21.70
2022-09-09T08:07:58.662Z,21.70
2022-09-09T08:10:26.003Z,21.80
2022-09-09T08:13:16.646Z,21.80
2022-09-09T08:15:44.628Z,21.90
2022-09-09T08:18:12.355Z,22.00
2022-09-09T08:20:39.813Z,22.00
2022-09-09T08:23:07.433Z,22.00
2022-09-09T08:25:36.261Z,22.00
2022-09-09T08:28:04.862Z,22.10
2022-09-09T08:30:32.416Z,22.10
2022-09-09T08:33:01.292Z,22.20
2022-09-09T08:35:33.888Z,22.10
2022-09-09T08:38:07.615Z,22.20
2022-09-09T08:40:42.388Z,22.20
2022-09-09T08:43:10.031Z,22.30
2022-09-09T08:46:26.965Z,22.30
2022-09-09T08:49:15.133Z,22.30
2022-09-09T08:51:43.299Z,22.30
2022-09-09T08:54:11.629Z,22.30
2022-09-09T08:56:38.856Z,22.40
2022-09-09T08:59:07.216Z,22.40
2022-09-09T09:02:04.151Z,22.40
2022-09-09T09:05:10.946Z,22.50
2022-09-09T09:08:16.613Z,22.50
2022-09-09T09:10:52.700Z,22.50
2022-09-09T09:13:49.940Z,22.70
2022-09-09T09:16:23.793Z,22.60
2022-09-09T09:18:53.503Z,22.70
2022-09-09T09:21:34.300Z,22.70
2022-09-09T09:24:02.488Z,22.80
2022-09-09T09:26:36.482Z,22.80
2022-09-09T09:29:16.385Z,22.80
2022-09-09T09:31:55.913Z,22.70
2022-09-09T09:34:25.786Z,22.80
2022-09-09T09:36:57.990Z,22.80
2022-09-09T09:42:21.719Z,22.90
2022-09-09T09:44:52.920Z,23.10
2022-09-09T09:47:24.765Z,23.00
2022-09-09T09:50:03.517Z,23.20
2022-09-09T09:52:38.035Z,23.20
2022-09-09T09:55:15.647Z,23.20
2022-09-09T09:57:45.994Z,23.20
2022-09-09T10:00:18.967Z,23.10
2022-09-09T10:02:55.887Z,23.10
2022-09-09T10:05:32.633Z,23.20
2022-09-09T10:08:13.217Z,23.20
2022-09-09T10:11:04.412Z,23.40
2022-09-09T10:14:16.300Z,23.40
2022-09-09T10:16:55.877Z,23.40
2022-09-09T10:19:34.035Z,23.50
2022-09-09T10:22:29.521Z,23.40
2022-09-09T10:25:12.265Z,23.40
2022-09-09T10:28:06.038Z,23.40
2022-09-09T10:31:07.777Z,23.40
2022-09-09T10:33:53.616Z,23.40
2022-09-09T10:36:27.211Z,23.50
2022-09-09T10:39:14.752Z,23.40
2022-09-09T10:41:44.866Z,23.40
2022-09-09T10:44:45.420Z,23.50
2022-09-09T10:47:34.399Z,23.60
2022-09-09T10:51:05.306Z,23.60
2022-09-09T10:53:41.793Z,23.70
2022-09-09T10:56:13.869Z,23.60
2022-09-09T10:58:57.829Z,23.70
2022-09-09T11:01:41.804Z,23.80
2022-09-09T11:04:20.469Z,23.80
2022-09-09T11:06:53.679Z,24.00
2022-09-09T11:09:26.197Z,24.00
2022-09-09T11:11:55.960Z,24.00
2022-09-09T11:14:26.827Z,24.20
2022-09-09T11:16:59.832Z,24.10
2022-09-09T11:19:56.737Z,24.20
2022-09-09T11:22:42.046Z,24.10
2022-09-09T11:25:18.622Z,24.10
2022-09-09T11:27:58.712Z,24.10
2022-09-09T11:30:56.255Z,24.10
2022-09-09T11:33:42.465Z,24.10
2022-09-09T11:36:40.652Z,24.20
2022-09-09T11:39:46.254Z,24.20
2022-09-09T11:42:13.619Z,24.40
2022-09-09T11:44:42.841Z,24.40
2022-09-09T11:47:31.263Z,24.30
2022-09-09T11:50:17.364Z,24.10
2022-09-09T11:52:47.535Z,24.10
2022-09-09T11:55:34.855Z,24.00
2022-09-09T11:58:07.420Z,24.00
2022-09-09T12:00:51.431Z,24.00
2022-09-09T12:03:46.301Z,24.10
2022-09-09T12:06:34.670Z,24.10
2022-09-09T12:09:30.760Z,24.30
2022-09-09T12:12:27.813Z,24.30
2022-09-09T12:15:18.429Z,24.60
2022-09-09T12:17:54.483Z,24.50
2022-09-09T12:20:32.473Z,24.50
2022-09-09T12:23:02.907Z,24.60
2022-09-09T12:25:36.834Z,24.80
2022-09-09T12:28:12.374Z,24.80
2022-09-09T12:31:21.593Z,24.90
2022-09-09T12:33:49.461Z,24.70
2022-09-09T12:36:30.803Z,24.70
2022-09-09T12:39:11.811Z,24.70
2022-09-09T12:41:39.129Z,24.70
2022-09-09T12:44:11.520Z,24.70
2022-09-09T12:46:44.809Z,24.80
2022-09-09T12:49:24.392Z,24.70
2022-09-09T12:51:52.022Z,24.80
2022-09-09T12:54:20.429Z,24.90
2022-09-09T12:56:49.726Z,25.00
2022-09-09T12:59:43.231Z,24.90
2022-09-09T13:02:21.326Z,24.90
2022-09-09T13:04:48.870Z,24.60
2022-09-09T13:07:17.694Z,24.50
2022-09-09T13:09:46.761Z,24.50
2022-09-09T13:12:23.762Z,24.50
2022-09-09T13:14:57.457Z,24.40
2022-09-09T13:17:28.416Z,24.30
2022-09-09T13:19:57.794Z,24.30
2022-09-09T13:22:35.920Z,24.30
2022-09-09T13:25:13.001Z,24.50
2022-09-09T13:27:43.567Z,24.60
2022-09-09T13:30:25.195Z,24.60
2022-09-09T13:33:11.007Z,24.60
2022-09-09T13:36:00.290Z,24.70
2022-09-09T13:38:30.755Z,24.80
2022-09-09T13:41:05.758Z,24.80
2022-09-09T13:43:38.227Z,24.70
2022-09-09T13:46:25.857Z,24.70
2022-09-09T13:48:57.976Z,24.60
2022-09-09T13:51:34.731Z,24.60
2022-09-09T13:54:02.500Z,24.70
2022-09-09T13:56:30.563Z,24.80
2022-09-09T13:58:58.916Z,24.80
2022-09-09T14:01:29.415Z,24.80
2022-09-09T14:03:57.630Z,24.80
2022-09-09T14:06:25.568Z,24.80
2022-09-09T14:08:53.842Z,24.80
2022-09-09T14:11:22.661Z,24.80
2022-09-09T14:13:52.909Z,24.60
2022-09-09T14:16:20.875Z,24.40
2022-09-09T14:18:48.314Z,24.40
2022-09-09T14:21:16.858Z,24.40
2022-09-09T14:23:44.190Z,24.40
2022-09-09T14:26:11.769Z,24.40
2022-09-09T14:28:54.296Z,24.70
2022-09-09T14:31:22.568Z,24.70
2022-09-09T14:33:49.876Z,24.90
2022-09-09T14:36:17.231Z,24.80
2022-09-09T14:38:45.111Z,24.70
2022-09-09T14:41:14.719Z,24.60
2022-09-09T14:43:42.210Z,24.60
2022-09-09T14:46:15.719Z,24.50
2022-09-09T14:48:43.479Z,24.50
2022-09-09T14:51:16.461Z,24.50
2022-09-09T14:53:45.304Z,24.40
2022-09-09T14:56:18.931Z,24.40
2022-09-09T14:58:47.756Z,24.30
2022-09-09T15:01:20.593Z,24.30
2022-09-09T15:03:56.903Z,24.30
2022-09-09T15:06:25.213Z,24.30
2022-09-09T15:08:54.648Z,24.40
2022-09-09T15:11:23.393Z,24.30
2022-09-09T15:13:54.146Z,24.40
2022-09-09T15:16:27.369Z,24.40
2022-09-09T15:19:00.301Z,24.40
2022-09-09T15:21:30.307Z,24.30
2022-09-09T15:23:58.216Z,24.40
2022-09-09T15:26:27.030Z,24.30
2022-09-09T15:28:55.436Z,24.40
2022-09-09T15:31:25.824Z,24.40
2022-09-09T15:34:01.656Z,24.40
2022-09-09T15:36:30.293Z,24.40
2022-09-09T15:38:58.039Z,24.40
2022-09-09T15:41:25.425Z,24.30
2022-09-09T15:43:55.876Z,24.40
2022-09-09T15:46:38.590Z,24.30
2022-09-09T15:49:15.721Z,24.10
2022-09-09T15:51:48.707Z,24.10
2022-09-09T15:54:21.819Z,24.00
2022-09-09T15:56:52.847Z,24.00
2022-09-09T15:59:20.265Z,24.00
2022-09-09T16:01:47.878Z,23.90
2022-09-09T16:04:16.908Z,23.80
2022-09-09T16:06:45.937Z,23.80
2022-09-09T16:09:13.387Z,23.80
2022-09-09T16:11:41.333Z,23.80
2022-09-09T16:14:08.974Z,23.80
2022-09-09T16:16:36.960Z,23.80
2022-09-09T16:19:10.684Z,23.70
2022-09-09T16:21:47.015Z,23.70
2022-09-09T16:24:18.163Z,23.70
2022-09-09T16:26:48.064Z,23.60
2022-09-09T16:29:17.016Z,23.50
2022-09-09T16:31:45.178Z,23.50
2022-09-09T16:34:12.757Z,23.50
2022-09-09T16:36:41.542Z,23.40
2022-09-09T16:39:13.579Z,23.30
2022-09-09T16:41:41.793Z,23.40
2022-09-09T16:44:11.750Z,23.30
2022-09-09T16:46:41.133Z,23.30
2022-09-09T16:49:11.779Z,23.20
2022-09-09T16:51:41.882Z,23.20
2022-09-09T16:54:10.719Z,23.10
2022-09-09T16:56:42.858Z,23.00
2022-09-09T16:59:17.868Z,23.00
2022-09-09T17:01:47.023Z,23.00
2022-09-09T17:04:21.425Z,22.90
2022-09-09T17:06:53.988Z,22.90
2022-09-09T17:09:23.705Z,22.80
2022-09-09T17:11:54.353Z,22.80
2022-09-09T17:14:23.094Z,22.70
2022-09-09T17:16:50.606Z,22.70
2022-09-09T17:19:18.220Z,22.60
2022-09-09T17:22:22.101Z,22.50
2022-09-09T17:24:36.718Z,22.50
2022-09-09T17:27:04.901Z,22.50
2022-09-09T17:29:32.255Z,22.40
2022-09-09T17:31:59.418Z,22.40
2022-09-09T17:34:26.788Z,22.40
2022-09-09T17:36:54.126Z,22.30
2022-09-09T17:39:21.437Z,22.30
2022-09-09T17:41:48.817Z,22.30
2022-09-09T17:44:17.059Z,22.20
2022-09-09T17:46:46.449Z,22.20
2022-09-09T17:49:16.123Z,22.20
2022-09-09T17:51:44.696Z,22.10
2022-09-09T17:54:14.706Z,22.10
2022-09-09T17:56:42.893Z,22.10
2022-09-09T17:59:13.483Z,22.10
2022-09-09T18:01:45.275Z,22.10
2022-09-09T18:04:14.617Z,22.40
2022-09-09T18:06:44.791Z,22.10
2022-09-09T18:09:15.208Z,22.10
2022-09-09T18:11:49.588Z,22.10
2022-09-09T18:14:20.684Z,22.10
2022-09-09T18:16:49.038Z,22.00
2022-09-09T18:19:22.618Z,22.00
2022-09-09T18:21:50.671Z,22.00
2022-09-09T18:24:20.242Z,22.00
2022-09-09T18:26:49.543Z,22.00
2022-09-09T18:29:20.778Z,22.00
2022-09-09T18:31:49.263Z,21.90
2022-09-09T18:34:18.916Z,21.90
2022-09-09T18:36:56.897Z,21.90
2022-09-09T18:39:28.180Z,21.90
2022-09-09T18:42:01.100Z,21.90
2022-09-09T18:44:34.733Z,21.90
2022-09-09T18:47:03.941Z,21.80
2022-09-09T18:49:31.570Z,21.80
2022-09-09T18:51:59.716Z,21.80
2022-09-09T18:54:30.776Z,21.80
2022-09-09T18:57:00.111Z,21.70
2022-09-09T18:59:28.897Z,21.70
2022-09-09T19:01:57.016Z,21.70
2022-09-09T19:04:26.677Z,21.60
2022-09-09T19:07:00.755Z,21.60
2022-09-09T19:09:32.619Z,21.60
2022-09-09T19:12:01.995Z,21.60
2022-09-09T19:14:30.318Z,21.60
2022-09-09T19:16:58.600Z,21.50
2022-09-09T19:19:32.481Z,21.50
2022-09-09T19:22:02.827Z,21.50
2022-09-09T19:24:33.135Z,21.50
2022-09-09T19:27:03.927Z,21.40
2022-09-09T19:29:33.791Z,21.40
2022-09-09T19:34:51.872Z,21.40
2022-09-09T19:37:19.720Z,21.40
2022-09-09T19:39:48.736Z,21.40
2022-09-09T19:42:16.082Z,21.50
2022-09-09T19:44:44.122Z,21.40
2022-09-09T19:47:13.167Z,21.40
2022-09-09T19:49:42.961Z,21.40
2022-09-09T19:52:13.603Z,21.40
2022-09-09T19:54:41.326Z,21.40
2022-09-09T19:57:08.644Z,21.40
2022-09-09T19:59:36.267Z,21.40
2022-09-09T20:02:03.919Z,21.40
2022-09-09T20:04:31.869Z,21.40
2022-09-09T20:06:59.085Z,21.30
2022-09-09T20:09:29.234Z,21.40
2022-09-09T20:11:56.683Z,21.40
2022-09-09T20:14:24.528Z,21.30
2022-09-09T20:16:51.927Z,21.30
2022-09-09T20:19:19.362Z,21.30
2022-09-09T20:21:52.387Z,21.30
2022-09-09T20:24:23.153Z,21.30
2022-09-09T20:26:50.960Z,21.30
2022-09-09T20:29:20.403Z,21.30
2022-09-09T20:31:48.473Z,21.30
2022-09-09T20:34:19.035Z,21.30
2022-09-09T20:36:47.356Z,21.30
2022-09-09T20:39:17.637Z,21.30
2022-09-09T20:41:46.566Z,21.30
2022-09-09T20:44:16.667Z,21.30
2022-09-09T20:46:49.035Z,21.30
2022-09-09T20:49:17.815Z,21.30
2022-09-09T20:51:45.796Z,21.30
2022-09-09T20:54:16.422Z,21.30
2022-09-09T20:56:45.792Z,21.30
2022-09-09T20:59:23.841Z,21.30
2022-09-09T21:01:53.004Z,21.30
2022-09-09T21:04:21.851Z,21.20
2022-09-09T21:06:51.297Z,21.30
2022-09-09T21:09:19.628Z,21.30
2022-09-09T21:11:47.449Z,21.20
2022-09-09T21:14:15.215Z,21.30
2022-09-09T21:16:42.642Z,21.30
2022-09-09T21:19:10.403Z,21.20
2022-09-09T21:21:37.667Z,21.20
2022-09-09T21:24:05.752Z,21.20
2022-09-09T21:26:33.452Z,21.10
2022-09-09T21:29:01.352Z,21.10
2022-09-09T21:31:28.920Z,21.20
2022-09-09T21:33:59.793Z,21.20
2022-09-09T21:36:28.782Z,21.20
2022-09-09T21:38:59.434Z,21.20
2022-09-09T21:41:26.892Z,21.20
2022-09-09T21:43:55.300Z,21.20
2022-09-09T21:46:23.757Z,21.20
2022-09-09T21:48:51.369Z,21.20
2022-09-09T21:51:19.224Z,21.20
2022-09-09T21:53:46.486Z,21.20
2022-09-09T21:56:19.159Z,21.20
2022-09-09T21:58:47.505Z,21.10
2022-09-09T22:01:18.723Z,21.10
2022-09-09T22:03:46.860Z,21.10
2022-09-09T22:06:16.135Z,21.10
2022-09-09T22:08:47.064Z,21.10
2022-09-09T22:11:22.469Z,21.10
2022-09-09T22:13:50.583Z,21.10
2022-09-09T22:16:21.009Z,21.10
2022-09-09T22:18:53.946Z,21.10
2022-09-09T22:21:22.290Z,21.10
2022-09-09T22:23:55.008Z,21.10
2022-09-09T22:26:23.577Z,21.10
2022-09-09T22:28:54.050Z,21.10
2022-09-09T22:31:23.111Z,21.10
2022-09-09T22:33:52.564Z,21.10
2022-09-09T22:36:20.610Z,21.10
2022-09-09T22:38:49.667Z,21.00
2022-09-09T22:41:17.307Z,21.00
2022-09-09T22:43:44.896Z,21.00
2022-09-09T22:46:13.836Z,21.00
2022-09-09T22:48:42.472Z,21.00
2022-09-09T22:51:12.656Z,21.00
2022-09-09T22:53:41.501Z,20.90
2022-09-09T22:56:13.730Z,20.90
2022-09-09T22:58:43.732Z,21.00
2022-09-09T23:01:19.512Z,20.90
2022-09-09T23:03:51.174Z,20.90
2022-09-09T23:06:25.174Z,20.80
2022-09-09T23:08:56.605Z,20.80
2022-09-09T23:11:29.466Z,20.80
2022-09-09T23:14:01.215Z,20.80
2022-09-09T23:16:33.316Z,20.80
2022-09-09T23:19:01.701Z,20.80
2022-09-09T23:21:30.330Z,20.80
2022-09-09T23:23:59.827Z,20.70
2022-09-09T23:26:30.132Z,20.80
2022-09-09T23:28:59.290Z,20.70
2022-09-09T23:31:29.507Z,20.80
2022-09-09T23:33:58.441Z,20.70
2022-09-09T23:36:28.081Z,20.70
2022-09-09T23:38:57.857Z,20.70
2022-09-09T23:41:25.533Z,20.70
2022-09-09T23:43:54.165Z,20.70
2022-09-09T23:46:24.707Z,20.60
2022-09-09T23:48:52.257Z,20.60
2022-09-09T23:51:24.150Z,20.70
2022-09-09T23:53:54.509Z,20.60
2022-09-09T23:56:27.070Z,20.60
2022-09-09T23:58:54.657Z,20.60
